createdAt,value
2018-12-19T00:01:10.724Z,3.92
2018-12-19T00:07:13.357Z,3.88
2018-12-19T00:09:24.821Z,3.89
2018-12-19T00:12:02.825Z,3.89
2018-12-19T00:12:47.778Z,3.83
2018-12-19T00:13:47.337Z,3.90
2018-12-19T00:14:46.512Z,3.94
2018-12-19T00:15:49.285Z,3.89
2018-12-19T00:16:46.570Z,3.90
2018-12-19T00:17:46.551Z,3.90
2018-12-19T00:18:46.105Z,3.86
2018-12-19T00:19:46.052Z,3.88
2018-12-19T00:20:46.085Z,3.92
2018-12-19T00:21:46.040Z,3.98
2018-12-19T00:22:46.020Z,3.89
2018-12-19T00:23:46.027Z,3.92
2018-12-19T00:24:46.065Z,3.86
2018-12-19T00:25:45.997Z,3.92
2018-12-19T00:26:45.997Z,3.96
2018-12-19T00:27:46.019Z,3.98
2018-12-19T00:28:46.014Z,4.03
2018-12-19T00:29:45.967Z,4.19
2018-12-19T00:30:45.962Z,4.15
2018-12-19T00:31:45.997Z,4.07
2018-12-19T00:32:45.946Z,4.15
2018-12-19T00:33:45.946Z,4.22
2018-12-19T00:34:45.928Z,4.21
2018-12-19T00:35:45.961Z,4.26
2018-12-19T00:36:46.047Z,4.28
2018-12-19T00:37:45.940Z,4.34
2018-12-19T00:38:45.959Z,4.33
2018-12-19T00:39:45.910Z,4.24
2018-12-19T00:40:46.005Z,4.26
2018-12-19T00:41:45.884Z,4.34
2018-12-19T00:42:45.870Z,4.26
2018-12-19T00:43:45.860Z,4.46
2018-12-19T00:44:45.896Z,4.50
2018-12-19T00:45:45.873Z,4.51
2018-12-19T00:46:45.876Z,4.44
2018-12-19T00:47:45.856Z,4.36
2018-12-19T00:48:45.814Z,4.44
2018-12-19T00:49:46.247Z,4.43
2018-12-19T00:50:45.828Z,4.50
2018-12-19T00:51:45.839Z,4.43
2018-12-19T00:52:45.827Z,4.33
2018-12-19T00:53:45.780Z,4.36
2018-12-19T00:54:45.800Z,4.40
2018-12-19T00:55:45.862Z,4.42
2018-12-19T00:56:45.774Z,4.29
2018-12-19T00:57:45.752Z,4.33
2018-12-19T00:58:45.746Z,4.29
2018-12-19T00:59:45.732Z,4.29
2018-12-19T01:00:45.723Z,4.28
2018-12-19T01:01:45.714Z,4.37
2018-12-19T01:02:45.707Z,4.39
2018-12-19T01:03:45.699Z,4.50
2018-12-19T01:04:48.158Z,4.42
2018-12-19T01:05:45.720Z,4.43
2018-12-19T01:06:45.682Z,4.37
2018-12-19T01:07:45.669Z,4.33
2018-12-19T01:08:45.661Z,4.32
2018-12-19T01:09:45.654Z,4.25
2018-12-19T01:10:45.645Z,4.21
2018-12-19T01:11:45.665Z,4.19
2018-12-19T01:12:45.669Z,4.16
2018-12-19T01:13:45.620Z,4.21
2018-12-19T01:14:45.639Z,4.21
2018-12-19T01:15:45.670Z,4.07
2018-12-19T01:16:45.595Z,4.15
2018-12-19T01:17:45.593Z,4.12
2018-12-19T01:18:45.608Z,4.15
2018-12-19T01:19:45.581Z,4.10
2018-12-19T01:20:45.602Z,4.00
2018-12-19T01:21:45.559Z,4.10
2018-12-19T01:22:45.567Z,4.08
2018-12-19T01:23:45.545Z,4.12
2018-12-19T01:24:45.561Z,4.03
2018-12-19T01:25:45.597Z,4.12
2018-12-19T01:26:45.568Z,4.00
2018-12-19T01:27:45.514Z,4.01
2018-12-19T01:28:45.536Z,3.98
2018-12-19T01:29:45.564Z,3.98
2018-12-19T01:30:45.501Z,4.01
2018-12-19T01:31:45.488Z,3.96
2018-12-19T01:32:45.477Z,3.92
2018-12-19T01:33:45.468Z,3.92
2018-12-19T01:34:45.477Z,3.90
2018-12-19T01:35:45.474Z,3.80
2018-12-19T01:36:45.474Z,3.76
2018-12-19T01:37:45.436Z,3.80
2018-12-19T01:38:45.443Z,3.83
2018-12-19T01:39:45.418Z,3.80
2018-12-19T01:40:45.413Z,3.79
2018-12-19T01:41:45.410Z,3.71
2018-12-19T01:42:45.399Z,3.70
2018-12-19T01:43:45.391Z,3.75
2018-12-19T01:44:45.383Z,3.72
2018-12-19T01:45:45.415Z,3.89
2018-12-19T01:46:45.378Z,3.90
2018-12-19T01:47:45.372Z,3.89
2018-12-19T01:48:45.354Z,3.92
2018-12-19T01:49:45.397Z,3.88
2018-12-19T01:50:45.333Z,3.90
2018-12-19T01:51:45.336Z,3.83
2018-12-19T01:52:45.319Z,3.82
2018-12-19T01:53:45.306Z,3.83
2018-12-19T01:54:45.298Z,3.79
2018-12-19T01:55:45.300Z,3.89
2018-12-19T01:56:45.284Z,3.92
2018-12-19T01:57:45.277Z,3.97
2018-12-19T01:58:45.267Z,3.89
2018-12-19T01:59:45.290Z,3.89
2018-12-19T02:00:45.251Z,3.89
2018-12-19T02:01:45.252Z,3.88
2018-12-19T02:02:45.259Z,3.89
2018-12-19T02:03:45.237Z,3.90
2018-12-19T02:04:45.220Z,3.92
2018-12-19T02:05:45.215Z,3.96
2018-12-19T02:06:45.229Z,3.90
2018-12-19T02:07:45.197Z,3.86
2018-12-19T02:08:45.202Z,3.68
2018-12-19T02:09:45.184Z,3.78
2018-12-19T02:10:45.173Z,3.72
2018-12-19T02:11:45.167Z,3.70
2018-12-19T02:12:45.158Z,3.61
2018-12-19T02:13:45.153Z,3.53
2018-12-19T02:14:45.138Z,3.65
2018-12-19T02:15:45.131Z,3.61
2018-12-19T02:16:45.122Z,3.62
2018-12-19T02:17:45.117Z,3.53
2018-12-19T02:18:45.109Z,3.60
2018-12-19T02:19:45.101Z,3.62
2018-12-19T02:20:45.109Z,3.70
2018-12-19T02:21:45.087Z,3.71
2018-12-19T02:22:45.076Z,3.83
2018-12-19T02:23:45.073Z,3.78
2018-12-19T02:24:45.072Z,3.80
2018-12-19T02:25:45.056Z,3.82
2018-12-19T02:26:45.050Z,3.90
2018-12-19T02:27:45.042Z,3.90
2018-12-19T02:28:45.032Z,3.98
2018-12-19T02:29:45.020Z,4.00
2018-12-19T02:30:45.017Z,3.98
2018-12-19T02:31:45.004Z,4.03
2018-12-19T02:32:44.995Z,4.03
2018-12-19T02:33:44.989Z,4.12
2018-12-19T02:34:44.981Z,4.14
2018-12-19T02:35:44.972Z,4.03
2018-12-19T02:36:44.964Z,4.10
2018-12-19T02:37:44.955Z,3.96
2018-12-19T02:38:45.000Z,3.97
2018-12-19T02:39:44.945Z,3.92
2018-12-19T02:40:44.937Z,3.89
2018-12-19T02:41:44.925Z,3.97
2018-12-19T02:42:44.918Z,3.94
2018-12-19T02:43:44.907Z,3.89
2018-12-19T02:44:44.900Z,3.90
2018-12-19T02:45:44.894Z,3.90
2018-12-19T02:46:44.886Z,3.90
2018-12-19T02:47:44.880Z,3.97
2018-12-19T02:48:44.867Z,4.00
2018-12-19T02:49:44.859Z,4.00
2018-12-19T02:50:44.860Z,3.97
2018-12-19T02:51:44.870Z,4.10
2018-12-19T02:52:44.836Z,4.06
2018-12-19T02:53:44.847Z,4.03
2018-12-19T02:54:44.873Z,4.08
2018-12-19T02:55:44.831Z,4.14
2018-12-19T02:56:44.808Z,4.00
2018-12-19T02:57:44.798Z,4.12
2018-12-19T02:58:44.813Z,3.98
2018-12-19T02:59:44.784Z,4.04
2018-12-19T03:00:44.800Z,3.96
2018-12-19T03:01:44.769Z,3.98
2018-12-19T03:02:44.757Z,4.00
2018-12-19T03:03:44.752Z,4.04
2018-12-19T03:04:44.759Z,4.01
2018-12-19T03:05:44.734Z,4.04
2018-12-19T03:06:44.725Z,4.15
2018-12-19T03:07:44.718Z,4.06
2018-12-19T03:08:44.743Z,4.08
2018-12-19T03:09:44.703Z,4.03
2018-12-19T03:10:44.696Z,4.07
2018-12-19T03:11:44.712Z,4.01
2018-12-19T03:12:44.704Z,4.06
2018-12-19T03:13:44.680Z,3.98
2018-12-19T03:14:44.706Z,4.00
2018-12-19T03:15:44.655Z,3.94
2018-12-19T03:16:44.650Z,3.97
2018-12-19T03:17:44.639Z,4.07
2018-12-19T03:18:44.643Z,3.98
2018-12-19T03:19:44.631Z,4.10
2018-12-19T03:20:44.621Z,4.12
2018-12-19T03:21:44.609Z,4.07
2018-12-19T03:22:44.605Z,4.03
2018-12-19T03:23:44.614Z,4.03
2018-12-19T03:24:44.587Z,4.07
2018-12-19T03:25:44.619Z,4.18
2018-12-19T03:26:44.571Z,4.08
2018-12-19T03:27:44.613Z,4.06
2018-12-19T03:28:44.585Z,4.08
2018-12-19T03:29:44.583Z,3.97
2018-12-19T03:30:44.546Z,4.00
2018-12-19T03:31:44.542Z,4.10
2018-12-19T03:32:44.523Z,4.07
2018-12-19T03:33:44.515Z,4.10
2018-12-19T03:34:44.526Z,4.12
2018-12-19T03:35:44.503Z,4.06
2018-12-19T03:36:44.492Z,4.15
2018-12-19T03:37:44.483Z,4.12
2018-12-19T03:38:44.483Z,4.01
2018-12-19T03:39:50.230Z,4.00
2018-12-19T03:40:44.490Z,3.98
2018-12-19T03:41:44.461Z,3.97
2018-12-19T03:42:44.446Z,4.16
2018-12-19T03:43:44.467Z,4.00
2018-12-19T03:44:44.431Z,4.10
2018-12-19T03:45:44.424Z,4.06
2018-12-19T03:46:44.413Z,4.10
2018-12-19T03:47:44.441Z,4.06
2018-12-19T03:48:44.435Z,4.12
2018-12-19T03:49:44.421Z,4.12
2018-12-19T03:50:44.388Z,3.98
2018-12-19T03:51:44.412Z,4.04
2018-12-19T03:52:44.368Z,4.15
2018-12-19T03:53:44.357Z,4.06
2018-12-19T03:54:44.387Z,4.14
2018-12-19T03:55:44.370Z,4.14
2018-12-19T03:56:44.340Z,4.15
2018-12-19T03:57:44.373Z,4.15
2018-12-19T03:58:44.326Z,4.15
2018-12-19T03:59:44.315Z,4.12
2018-12-19T04:00:44.311Z,4.19
2018-12-19T04:01:44.300Z,4.21
2018-12-19T04:02:44.294Z,4.24
2018-12-19T04:03:44.286Z,4.16
2018-12-19T04:04:44.277Z,4.21
2018-12-19T04:05:44.266Z,4.16
2018-12-19T04:06:44.259Z,4.16
2018-12-19T04:07:44.251Z,4.03
2018-12-19T04:08:44.270Z,4.16
2018-12-19T04:09:44.239Z,4.16
2018-12-19T04:10:44.232Z,4.15
2018-12-19T04:11:44.228Z,4.15
2018-12-19T04:12:44.222Z,4.12
2018-12-19T04:13:44.208Z,4.12
2018-12-19T04:14:44.200Z,4.07
2018-12-19T04:15:44.191Z,4.07
2018-12-19T04:16:44.182Z,3.98
2018-12-19T04:17:44.188Z,4.03
2018-12-19T04:18:44.173Z,3.96
2018-12-19T04:19:44.159Z,3.98
2018-12-19T04:20:44.157Z,3.98
2018-12-19T04:21:44.152Z,3.98
2018-12-19T04:22:44.149Z,3.98
2018-12-19T04:23:44.132Z,3.96
2018-12-19T04:24:44.190Z,3.98
2018-12-19T04:25:44.116Z,3.89
2018-12-19T04:26:44.110Z,3.94
2018-12-19T04:27:44.104Z,3.94
2018-12-19T04:28:44.100Z,3.94
2018-12-19T04:29:44.085Z,3.94
2018-12-19T04:30:44.099Z,3.94
2018-12-19T04:31:44.071Z,3.86
2018-12-19T04:32:44.066Z,3.86
2018-12-19T04:33:44.066Z,3.88
2018-12-19T04:34:44.047Z,3.82
2018-12-19T04:35:44.050Z,3.85
2018-12-19T04:36:44.033Z,3.75
2018-12-19T04:37:44.097Z,3.75
2018-12-19T04:38:44.090Z,3.85
2018-12-19T04:39:44.142Z,3.85
2018-12-19T04:40:44.021Z,3.89
2018-12-19T04:41:44.006Z,3.80
2018-12-19T04:42:43.985Z,3.85
2018-12-19T04:43:43.993Z,3.80
2018-12-19T04:44:43.971Z,3.82
2018-12-19T04:45:43.978Z,3.85
2018-12-19T04:46:43.963Z,3.78
2018-12-19T04:47:43.947Z,3.79
2018-12-19T04:48:43.942Z,3.76
2018-12-19T04:49:43.929Z,3.72
2018-12-19T04:50:43.930Z,3.65
2018-12-19T04:51:43.913Z,3.71
2018-12-19T04:52:43.911Z,3.64
2018-12-19T04:53:43.918Z,3.75
2018-12-19T04:54:43.889Z,3.65
2018-12-19T04:55:43.885Z,3.67
2018-12-19T04:56:43.876Z,3.75
2018-12-19T04:57:43.867Z,3.71
2018-12-19T04:58:43.875Z,3.71
2018-12-19T04:59:43.887Z,3.65
2018-12-19T05:00:43.842Z,3.75
2018-12-19T05:01:43.838Z,3.70
2018-12-19T05:02:43.830Z,3.70
2018-12-19T05:03:43.822Z,3.72
2018-12-19T05:04:43.814Z,3.70
2018-12-19T05:05:43.805Z,3.65
2018-12-19T05:06:43.795Z,3.76
2018-12-19T05:07:43.792Z,3.71
2018-12-19T05:08:43.785Z,3.78
2018-12-19T05:09:43.776Z,3.62
2018-12-19T05:10:43.769Z,3.68
2018-12-19T05:11:43.755Z,3.68
2018-12-19T05:12:43.751Z,3.82
2018-12-19T05:13:43.743Z,3.85
2018-12-19T05:14:43.754Z,3.82
2018-12-19T05:15:43.725Z,3.89
2018-12-19T05:16:44.803Z,3.92
2018-12-19T05:18:43.695Z,3.88
2018-12-19T05:18:44.229Z,3.83
2018-12-19T05:20:41.043Z,3.79
2018-12-19T05:21:38.457Z,3.78
2018-12-19T05:22:39.429Z,3.72
2018-12-19T05:23:38.919Z,3.68
2018-12-19T05:24:38.375Z,3.82
2018-12-19T05:25:37.892Z,3.72
2018-12-19T05:26:38.942Z,3.72
2018-12-19T05:27:37.833Z,3.79
2018-12-19T05:28:37.888Z,3.76
2018-12-19T05:29:37.871Z,3.75
2018-12-19T05:30:38.936Z,3.76
2018-12-19T05:31:37.882Z,3.76
2018-12-19T05:32:37.772Z,3.71
2018-12-19T05:33:37.598Z,3.70
2018-12-19T05:34:37.395Z,3.65
2018-12-19T05:35:39.107Z,3.71
2018-12-19T05:36:37.378Z,3.68
2018-12-19T05:37:51.467Z,3.68
2018-12-19T05:39:31.166Z,3.70
2018-12-19T05:40:32.666Z,3.71
2018-12-19T05:41:31.190Z,3.60
2018-12-19T05:42:32.248Z,3.65
2018-12-19T05:43:31.140Z,3.64
2018-12-19T05:44:32.663Z,3.65
2018-12-19T05:45:32.205Z,3.62
2018-12-19T05:46:32.164Z,3.54
2018-12-19T05:47:31.667Z,3.60
2018-12-19T05:48:31.673Z,3.58
2018-12-19T05:49:31.124Z,3.52
2018-12-19T05:50:31.622Z,3.44
2018-12-19T05:51:31.703Z,3.57
2018-12-19T05:52:31.619Z,3.58
2018-12-19T05:53:31.634Z,3.54
2018-12-19T05:54:33.282Z,3.46
2018-12-19T05:55:30.966Z,3.43
2018-12-19T05:56:31.461Z,3.47
2018-12-19T05:57:31.667Z,3.36
2018-12-19T05:58:31.557Z,3.43
2018-12-19T05:59:31.562Z,3.40
2018-12-19T06:00:30.684Z,3.40
2018-12-19T06:01:30.601Z,3.43
2018-12-19T06:02:30.598Z,3.44
2018-12-19T06:03:30.537Z,3.43
2018-12-19T06:04:30.542Z,3.42
2018-12-19T06:05:30.542Z,3.42
2018-12-19T06:06:30.529Z,3.39
2018-12-19T06:07:30.589Z,3.49
2018-12-19T06:08:30.516Z,3.46
2018-12-19T06:09:30.630Z,3.36
2018-12-19T06:10:30.554Z,3.42
2018-12-19T06:11:32.289Z,3.42
2018-12-19T06:12:32.358Z,3.44
2018-12-19T06:13:30.506Z,3.57
2018-12-19T06:14:30.493Z,3.46
2018-12-19T06:15:30.581Z,3.46
2018-12-19T06:16:30.466Z,3.53
2018-12-19T06:17:30.484Z,3.44
2018-12-19T06:18:30.488Z,3.49
2018-12-19T06:19:30.474Z,3.49
2018-12-19T06:20:30.456Z,3.42
2018-12-19T06:21:32.364Z,3.40
2018-12-19T06:22:30.464Z,3.43
2018-12-19T06:23:30.420Z,3.46
2018-12-19T06:24:30.453Z,3.42
2018-12-19T06:25:30.395Z,3.43
2018-12-19T06:26:30.404Z,3.44
2018-12-19T06:27:30.372Z,3.39
2018-12-19T06:28:30.380Z,3.46
2018-12-19T06:29:30.384Z,3.42
2018-12-19T06:30:30.406Z,3.43
2018-12-19T06:31:30.342Z,3.42
2018-12-19T06:32:30.351Z,3.46
2018-12-19T06:33:30.340Z,3.40
2018-12-19T06:34:30.419Z,3.40
2018-12-19T06:35:32.346Z,3.36
2018-12-19T06:36:30.273Z,3.36
2018-12-19T06:37:30.321Z,3.28
2018-12-19T06:38:30.259Z,3.36
2018-12-19T06:39:30.274Z,3.40
2018-12-19T06:40:32.730Z,3.44
2018-12-19T06:41:30.261Z,3.43
2018-12-19T06:42:30.251Z,3.44
2018-12-19T06:43:30.221Z,3.49
2018-12-19T06:44:30.254Z,3.42
2018-12-19T06:45:30.247Z,3.47
2018-12-19T06:46:30.291Z,3.44
2018-12-19T06:47:30.194Z,3.36
2018-12-19T06:48:30.221Z,3.34
2018-12-19T06:49:30.206Z,3.42
2018-12-19T06:50:30.168Z,3.42
2018-12-19T06:51:30.194Z,3.36
2018-12-19T06:52:30.208Z,3.36
2018-12-19T06:53:30.177Z,3.44
2018-12-19T06:54:30.192Z,3.40
2018-12-19T06:55:30.205Z,3.36
2018-12-19T06:56:30.213Z,3.39
2018-12-19T06:57:30.183Z,3.47
2018-12-19T06:58:30.263Z,3.44
2018-12-19T06:59:30.131Z,3.40
2018-12-19T07:00:30.162Z,3.46
2018-12-19T07:01:31.172Z,3.44
2018-12-19T07:02:31.806Z,3.54
2018-12-19T07:03:30.190Z,3.54
2018-12-19T07:04:32.010Z,3.47
2018-12-19T07:05:31.901Z,3.61
2018-12-19T07:06:31.855Z,3.53
2018-12-19T07:07:30.212Z,3.53
2018-12-19T07:08:31.903Z,3.57
2018-12-19T07:11:21.760Z,3.57
2018-12-19T07:12:21.751Z,3.53
2018-12-19T07:13:21.748Z,3.57
2018-12-19T07:14:22.331Z,3.54
2018-12-19T07:15:22.263Z,3.62
2018-12-19T07:16:21.680Z,3.52
2018-12-19T07:17:22.343Z,3.60
2018-12-19T07:18:21.655Z,3.60
2018-12-19T07:19:22.229Z,3.61
2018-12-19T07:20:21.684Z,3.57
2018-12-19T07:21:21.664Z,3.57
2018-12-19T07:22:21.512Z,3.60
2018-12-19T07:23:21.234Z,3.47
2018-12-19T07:24:21.246Z,3.49
2018-12-19T07:25:21.277Z,3.46
2018-12-19T07:26:21.245Z,3.46
2018-12-19T07:27:21.235Z,3.43
2018-12-19T07:28:21.242Z,3.46
2018-12-19T07:29:21.181Z,3.42
2018-12-19T07:30:29.277Z,3.31
2018-12-19T07:32:15.491Z,3.46
2018-12-19T07:33:15.463Z,3.36
2018-12-19T07:34:15.478Z,3.47
2018-12-19T07:35:15.897Z,3.42
2018-12-19T07:36:16.481Z,3.42
2018-12-19T07:37:16.497Z,3.43
2018-12-19T07:38:15.401Z,3.43
2018-12-19T07:39:15.839Z,3.52
2018-12-19T07:40:15.895Z,3.44
2018-12-19T07:41:15.856Z,3.44
2018-12-19T07:42:15.091Z,3.44
2018-12-19T07:43:15.065Z,3.60
2018-12-19T07:44:14.926Z,3.52
2018-12-19T07:45:14.947Z,3.61
2018-12-19T07:46:19.822Z,3.61
2018-12-19T07:47:14.999Z,3.58
2018-12-19T07:48:14.903Z,3.58
2018-12-19T07:49:16.663Z,3.62
2018-12-19T07:50:14.963Z,3.65
2018-12-19T07:51:14.933Z,3.58
2018-12-19T07:52:14.917Z,3.60
2018-12-19T07:53:14.885Z,3.60
2018-12-19T07:54:14.922Z,3.61
2018-12-19T07:55:14.845Z,3.70
2018-12-19T07:56:16.658Z,3.62
2018-12-19T07:57:14.814Z,3.65
2018-12-19T07:58:16.634Z,3.62
2018-12-19T07:59:16.653Z,3.54
2018-12-19T08:00:14.836Z,3.60
2018-12-19T08:01:14.787Z,3.58
2018-12-19T08:02:14.804Z,3.53
2018-12-19T08:03:14.768Z,3.60
2018-12-19T08:04:14.804Z,3.58
2018-12-19T08:05:14.781Z,3.52
2018-12-19T08:06:14.789Z,3.50
2018-12-19T08:07:14.781Z,3.44
2018-12-19T08:08:14.803Z,3.46
2018-12-19T08:09:14.759Z,3.39
2018-12-19T08:10:16.703Z,3.52
2018-12-19T08:11:16.665Z,3.49
2018-12-19T08:12:16.648Z,3.46
2018-12-19T08:13:16.621Z,3.53
2018-12-19T08:14:14.703Z,3.53
2018-12-19T08:15:16.788Z,3.54
2018-12-19T08:16:14.752Z,3.46
2018-12-19T08:17:16.682Z,3.60
2018-12-19T08:18:20.732Z,3.61
2018-12-19T08:19:14.682Z,3.60
2018-12-19T08:20:14.659Z,3.62
2018-12-19T08:21:14.879Z,3.52
2018-12-19T08:22:16.744Z,3.61
2018-12-19T08:23:16.733Z,3.61
2018-12-19T08:24:14.725Z,3.62
2018-12-19T08:25:14.656Z,3.54
2018-12-19T08:26:14.621Z,3.57
2018-12-19T08:27:16.109Z,3.53
2018-12-19T08:28:17.219Z,3.62
2018-12-19T08:29:14.670Z,3.60
2018-12-19T08:30:14.567Z,3.57
2018-12-19T08:31:14.692Z,3.62
2018-12-19T08:32:16.206Z,3.65
2018-12-19T08:33:16.186Z,3.57
2018-12-19T08:34:16.238Z,3.60
2018-12-19T08:35:14.574Z,3.58
2018-12-19T08:36:16.141Z,3.58
2018-12-19T08:37:31.529Z,3.50
2018-12-19T08:38:14.571Z,3.60
2018-12-19T08:39:14.643Z,3.54
2018-12-19T08:40:15.767Z,3.53
2018-12-19T08:41:14.606Z,3.61
2018-12-19T08:42:14.520Z,3.60
2018-12-19T08:43:16.281Z,3.58
2018-12-19T08:44:14.445Z,3.54
2018-12-19T08:45:17.361Z,3.54
2018-12-19T08:46:16.175Z,3.62
2018-12-19T08:47:16.202Z,3.61
2018-12-19T08:48:22.621Z,3.71
2018-12-19T08:49:17.276Z,3.65
2018-12-19T08:50:16.336Z,3.76
2018-12-19T08:51:18.310Z,3.82
2018-12-19T08:53:43.194Z,3.78
2018-12-19T08:54:39.298Z,3.79
2018-12-19T08:55:41.166Z,3.85
2018-12-19T08:56:40.817Z,3.90
2018-12-19T08:57:40.197Z,3.89
2018-12-19T08:58:40.681Z,3.89
2018-12-19T09:00:15.682Z,3.85
2018-12-19T09:00:40.503Z,3.80
2018-12-19T09:01:40.638Z,3.90
2018-12-19T09:02:40.543Z,3.96
2018-12-19T09:03:40.635Z,3.90
2018-12-19T09:04:40.521Z,3.96
2018-12-19T09:05:41.649Z,3.96
2018-12-19T09:06:40.099Z,3.88
2018-12-19T09:07:40.590Z,3.80
2018-12-19T09:08:45.050Z,3.82
2018-12-19T09:09:39.041Z,3.76
2018-12-19T09:10:39.040Z,3.72
2018-12-19T09:11:38.906Z,3.76
2018-12-19T09:12:40.611Z,3.68
2018-12-19T09:13:40.852Z,3.68
2018-12-19T09:14:38.999Z,3.71
2018-12-19T09:15:38.872Z,3.71
2018-12-19T09:16:41.509Z,3.61
2018-12-19T09:17:38.959Z,3.62
2018-12-19T09:18:38.905Z,3.60
2018-12-19T09:19:41.642Z,3.53
2018-12-19T09:20:38.786Z,3.61
2018-12-19T09:21:40.534Z,3.57
2018-12-19T09:22:41.695Z,3.61
2018-12-19T09:23:38.890Z,3.60
2018-12-19T09:24:39.807Z,3.54
2018-12-19T09:25:38.824Z,3.62
2018-12-19T09:26:41.635Z,3.62
2018-12-19T09:27:38.851Z,3.65
2018-12-19T09:28:38.980Z,3.58
2018-12-19T09:29:41.585Z,3.64
2018-12-19T09:30:41.529Z,3.70
2018-12-19T09:31:39.744Z,3.70
2018-12-19T09:32:40.694Z,3.71
2018-12-19T09:33:38.863Z,3.70
2018-12-19T09:34:47.914Z,3.71
2018-12-19T09:35:52.683Z,3.54
2018-12-19T09:37:44.419Z,3.62
2018-12-19T09:40:11.914Z,3.68
2018-12-19T09:43:09.802Z,3.70
2018-12-19T09:43:39.755Z,3.80
2018-12-19T09:46:31.640Z,3.89
2018-12-19T09:47:30.999Z,3.92
2018-12-19T09:48:28.647Z,3.92
2018-12-19T09:49:28.680Z,3.96
2018-12-19T09:50:30.318Z,4.00
2018-12-19T09:51:28.755Z,3.97
2018-12-19T09:52:30.283Z,4.03
2018-12-19T09:53:30.207Z,4.10
2018-12-19T09:54:28.387Z,4.00
2018-12-19T09:55:32.168Z,4.14
2018-12-19T09:56:28.606Z,4.06
2018-12-19T09:57:28.430Z,4.08
2018-12-19T09:58:30.201Z,4.06
2018-12-19T09:59:32.239Z,4.18
2018-12-19T10:00:28.468Z,4.10
2018-12-19T10:01:30.205Z,4.18
2018-12-19T10:02:32.297Z,4.19
2018-12-19T10:03:28.331Z,4.19
2018-12-19T10:04:32.301Z,4.21
2018-12-19T10:05:37.260Z,4.19
2018-12-19T10:06:28.386Z,4.18
2018-12-19T10:07:30.290Z,4.19
2018-12-19T10:08:30.231Z,4.24
2018-12-19T10:09:28.315Z,4.21
2018-12-19T10:10:28.344Z,4.19
2018-12-19T10:11:30.144Z,4.18
2018-12-19T10:12:28.308Z,3.96
2018-12-19T10:13:30.299Z,3.92
2018-12-19T10:14:28.333Z,3.88
2018-12-19T10:15:28.358Z,3.82
2018-12-19T10:16:37.459Z,3.85
2018-12-19T10:18:22.689Z,3.76
2018-12-19T10:19:32.195Z,3.75
2018-12-19T10:21:18.441Z,3.76
2018-12-19T10:22:18.395Z,3.76
2018-12-19T10:23:16.296Z,3.67
2018-12-19T10:24:20.384Z,3.61
2018-12-19T10:25:16.309Z,3.65
2018-12-19T10:26:16.364Z,3.57
2018-12-19T10:27:17.217Z,3.58
2018-12-19T10:28:17.649Z,3.70
2018-12-19T10:29:17.608Z,3.64
2018-12-19T10:30:23.696Z,3.67
2018-12-19T10:31:17.182Z,3.68
2018-12-19T10:32:17.657Z,3.70
2018-12-19T10:33:17.594Z,3.68
2018-12-19T10:34:16.064Z,3.65
2018-12-19T10:35:17.606Z,3.65
2018-12-19T10:36:19.578Z,3.70
2018-12-19T10:37:16.062Z,3.75
2018-12-19T10:38:16.057Z,3.68
2018-12-19T10:39:17.641Z,3.79
2018-12-19T10:40:17.546Z,3.78
2018-12-19T10:41:17.578Z,3.82
2018-12-19T10:42:15.948Z,3.82
2018-12-19T10:43:15.980Z,3.80
2018-12-19T10:44:16.951Z,3.80
2018-12-19T10:45:17.576Z,3.90
2018-12-19T10:46:15.963Z,3.94
2018-12-19T10:47:17.590Z,3.86
2018-12-19T10:48:17.566Z,3.89
2018-12-19T10:49:17.624Z,3.92
2018-12-19T10:50:17.588Z,3.94
2018-12-19T10:51:15.871Z,3.98
2018-12-19T10:52:15.916Z,4.03
2018-12-19T10:53:17.683Z,4.03
2018-12-19T10:54:17.639Z,4.01
2018-12-19T10:55:15.941Z,4.06
2018-12-19T10:56:15.879Z,4.12
2018-12-19T10:57:15.943Z,4.10
2018-12-19T10:58:15.866Z,4.04
2018-12-19T10:59:17.586Z,4.18
2018-12-19T11:00:17.643Z,4.08
2018-12-19T11:01:15.892Z,4.19
2018-12-19T11:02:18.700Z,4.26
2018-12-19T11:03:15.884Z,4.24
2018-12-19T11:04:17.626Z,4.28
2018-12-19T11:05:15.913Z,4.29
2018-12-19T11:06:17.738Z,4.36
2018-12-19T11:07:15.861Z,4.36
2018-12-19T11:08:20.244Z,4.43
2018-12-19T11:09:15.871Z,4.32
2018-12-19T11:10:17.752Z,4.43
2018-12-19T11:11:17.776Z,4.43
2018-12-19T11:12:17.660Z,4.37
2018-12-19T11:13:17.602Z,4.51
2018-12-19T11:14:18.843Z,4.36
2018-12-19T11:15:16.024Z,4.44
2018-12-19T11:18:46.732Z,4.44
2018-12-19T11:21:21.687Z,4.55
2018-12-19T11:22:58.359Z,4.55
2018-12-19T11:23:59.290Z,4.51
2018-12-19T11:26:19.439Z,4.47
2018-12-19T11:27:19.001Z,4.72
2018-12-19T11:28:19.051Z,4.73
2018-12-19T11:29:19.043Z,4.84
2018-12-19T11:30:18.996Z,4.73
2018-12-19T11:31:18.694Z,4.77
2018-12-19T11:32:19.513Z,4.79
2018-12-19T11:33:19.534Z,4.77
2018-12-19T11:34:34.318Z,4.79
2018-12-19T11:35:18.679Z,4.80
2018-12-19T11:36:18.805Z,4.80
2018-12-19T11:37:21.414Z,4.79
2018-12-19T11:39:09.393Z,4.83
2018-12-19T11:39:18.934Z,4.88
2018-12-19T11:40:20.581Z,4.91
2018-12-19T11:41:18.840Z,4.88
2018-12-19T11:42:18.809Z,4.96
2018-12-19T11:43:18.825Z,4.89
2018-12-19T11:44:26.601Z,4.91
2018-12-19T11:46:13.352Z,4.94
2018-12-19T11:47:13.913Z,4.91
2018-12-19T11:48:13.881Z,4.98
2018-12-19T11:49:12.782Z,4.88
2018-12-19T11:50:12.582Z,4.89
2018-12-19T11:51:12.704Z,4.92
2018-12-19T11:52:14.136Z,4.91
2018-12-19T11:53:12.447Z,4.91
2018-12-19T11:54:14.120Z,4.88
2018-12-19T11:55:12.464Z,4.91
2018-12-19T11:56:12.494Z,4.80
2018-12-19T11:57:12.520Z,4.76
2018-12-19T11:58:14.088Z,4.79
2018-12-19T11:59:14.482Z,4.77
2018-12-19T12:00:15.262Z,4.79
2018-12-19T12:01:13.488Z,4.80
2018-12-19T12:02:44.455Z,4.84
2018-12-19T12:05:04.416Z,4.84
2018-12-19T12:05:50.402Z,4.89
2018-12-19T12:08:36.808Z,4.88
2018-12-19T12:13:11.693Z,4.75
2018-12-19T12:15:54.174Z,4.77
2018-12-19T12:16:35.081Z,4.73
2018-12-19T12:17:35.605Z,4.76
2018-12-19T12:18:34.938Z,4.86
2018-12-19T12:19:35.081Z,4.88
2018-12-19T12:20:34.948Z,4.92
2018-12-19T12:21:35.087Z,4.86
2018-12-19T12:22:35.024Z,4.95
2018-12-19T12:23:34.904Z,4.86
2018-12-19T12:24:34.692Z,4.92
2018-12-19T12:25:34.715Z,4.86
2018-12-19T12:26:34.750Z,4.92
2018-12-19T12:27:35.757Z,4.92
2018-12-19T12:28:34.731Z,4.94
2018-12-19T12:29:34.742Z,4.92
2018-12-19T12:30:35.299Z,4.91
2018-12-19T12:31:34.593Z,4.89
2018-12-19T12:32:35.355Z,4.98
2018-12-19T12:33:35.279Z,4.94
2018-12-19T12:34:34.705Z,4.96
2018-12-19T12:35:34.626Z,4.96
2018-12-19T12:36:34.617Z,5.01
2018-12-19T12:37:34.680Z,4.91
2018-12-19T12:38:35.269Z,4.94
2018-12-19T12:39:34.642Z,4.91
2018-12-19T12:40:34.578Z,4.89
2018-12-19T12:41:34.618Z,4.86
2018-12-19T12:42:34.535Z,4.88
2018-12-19T12:43:35.358Z,4.91
2018-12-19T12:44:34.589Z,4.86
2018-12-19T12:45:34.568Z,4.80
2018-12-19T12:46:34.636Z,4.83
2018-12-19T12:47:34.566Z,4.77
2018-12-19T12:48:34.631Z,4.75
2018-12-19T12:49:34.506Z,4.77
2018-12-19T12:50:35.397Z,4.79
2018-12-19T12:51:34.533Z,4.77
2018-12-19T12:52:35.305Z,4.80
2018-12-19T12:53:34.558Z,4.83
2018-12-19T12:54:35.367Z,4.73
2018-12-19T12:55:34.519Z,4.73
2018-12-19T12:56:34.445Z,4.80
2018-12-19T12:57:34.377Z,4.76
2018-12-19T12:58:34.471Z,4.77
2018-12-19T12:59:34.487Z,4.76
2018-12-19T13:00:34.547Z,4.69
2018-12-19T13:03:08.272Z,4.77
2018-12-19T13:03:57.002Z,4.83
2018-12-19T13:04:57.020Z,4.73
2018-12-19T13:06:05.398Z,4.83
2018-12-19T13:10:00.864Z,4.80
2018-12-19T13:11:22.371Z,4.80
2018-12-19T13:13:11.167Z,4.86
2018-12-19T13:13:59.005Z,4.83
2018-12-19T13:19:50.374Z,4.89
2018-12-19T13:20:21.092Z,4.88
2018-12-19T13:24:49.109Z,4.86
2018-12-19T13:32:09.523Z,4.77
2018-12-19T13:35:19.487Z,4.62
2018-12-19T13:35:47.903Z,4.70
2018-12-19T13:42:33.798Z,4.47
2018-12-19T13:43:15.900Z,4.47
2018-12-19T13:45:58.300Z,4.43
2018-12-19T13:46:13.269Z,4.40
2018-12-19T13:51:11.949Z,4.42
2018-12-19T13:51:24.102Z,4.44
2018-12-19T13:54:57.557Z,4.50
2018-12-19T13:58:06.890Z,4.62
2018-12-19T13:59:00.208Z,4.69
2018-12-19T14:02:35.899Z,4.72
2018-12-19T14:05:13.541Z,4.77
2018-12-19T14:06:01.485Z,4.75
2018-12-19T14:12:16.393Z,4.62
2018-12-19T14:18:48.322Z,4.67
2018-12-19T14:20:32.287Z,4.79
2018-12-19T14:20:45.694Z,4.76
2018-12-19T14:21:45.714Z,4.84
2018-12-19T14:27:08.985Z,4.64
2018-12-19T14:27:26.110Z,4.70
2018-12-19T14:32:36.576Z,4.65
2018-12-19T15:06:44.831Z,4.62
2018-12-19T15:20:31.369Z,4.28
2018-12-19T15:20:41.439Z,4.32
2018-12-19T15:21:41.075Z,4.29
2018-12-19T15:24:51.472Z,4.26
2018-12-19T15:25:40.272Z,4.29
2018-12-19T15:28:51.285Z,4.15
2018-12-19T15:29:53.864Z,4.04
2018-12-19T15:56:23.327Z,3.83
2018-12-19T16:02:25.770Z,3.88
2018-12-19T16:09:13.905Z,3.78
2018-12-19T16:09:28.424Z,3.85
2018-12-19T16:12:26.448Z,3.82
2018-12-19T16:14:29.576Z,3.82
2018-12-19T16:16:34.970Z,3.90
2018-12-19T16:19:04.004Z,3.96
2018-12-19T16:21:52.531Z,4.00
2018-12-19T16:24:49.431Z,3.88
2018-12-19T16:25:12.643Z,3.76
2018-12-19T16:30:08.497Z,3.67
2018-12-19T16:32:59.685Z,3.58